sensor_id;sensor_type;location;lat;lon;timestamp;P1;durP1;ratioP1;P2;durP2;ratioP2
51491;SDS011;37569;50.548;8.778;2023-03-02T00:00:25;14.4;;;9.4;;
51491;SDS011;37569;50.548;8.778;2023-03-02T00:05:25;12.2;;;7.9;;
51491;SDS011;37569;50.548;8.778;2023-03-02T00:10:25;14.9;;;9.2;;
51491;SDS011;37569;50.548;8.778;2023-03-02T00:15:25;14.3;;;8.7;;
51491;SDS011;37569;50.548;8.778;2023-03-02T00:20:25;11.6;;;7.9;;
51491;SDS011;37569;50.548;8.778;2023-03-02T00:25:25;12.7;;;8;;
51491;SDS011;37569;50.548;8.778;2023-03-02T00:30:25;13.2;;;8.1;;
51491;SDS011;37569;50.548;8.778;2023-03-02T00:35:25;14.1;;;8.4;;
51491;SDS011;37569;50.548;8.778;2023-03-02T00:40:25;11.2;;;7.6;;
51491;SDS011;37569;50.548;8.778;2023-03-02T00:45:26;12.7;;;7.9;;
51491;SDS011;37569;50.548;8.778;2023-03-02T00:50:26;13.2;;;7.9;;
51491;SDS011;37569;50.548;8.778;2023-03-02T00:55:26;12.5;;;7.4;;
51491;SDS011;37569;50.548;8.778;2023-03-02T01:00:26;12.3;;;7.8;;
51491;SDS011;37569;50.548;8.778;2023-03-02T01:05:26;13.7;;;8.5;;
51491;SDS011;37569;50.548;8.778;2023-03-02T01:10:26;13.2;;;8.5;;
51491;SDS011;37569;50.548;8.778;2023-03-02T01:15:26;12;;;8;;
51491;SDS011;37569;50.548;8.778;2023-03-02T01:20:26;11.4;;;7.6;;
51491;SDS011;37569;50.548;8.778;2023-03-02T01:25:26;12.8;;;7.9;;
51491;SDS011;37569;50.548;8.778;2023-03-02T01:30:26;12.2;;;7.1;;
51491;SDS011;37569;50.548;8.778;2023-03-02T01:35:26;12.3;;;7.6;;
51491;SDS011;37569;50.548;8.778;2023-03-02T01:40:27;11.8;;;7.6;;
51491;SDS011;37569;50.548;8.778;2023-03-02T01:45:58;12;;;8.2;;
51491;SDS011;37569;50.548;8.778;2023-03-02T01:50:27;12.9;;;7.9;;
51491;SDS011;37569;50.548;8.778;2023-03-02T01:55:28;13.1;;;8;;
51491;SDS011;37569;50.548;8.778;2023-03-02T02:00:27;13.5;;;7.9;;
51491;SDS011;37569;50.548;8.778;2023-03-02T02:05:27;11.6;;;8.3;;
51491;SDS011;37569;50.548;8.778;2023-03-02T02:10:27;13.1;;;8.1;;
51491;SDS011;37569;50.548;8.778;2023-03-02T02:15:27;12;;;8.1;;
51491;SDS011;37569;50.548;8.778;2023-03-02T02:20:28;13.4;;;8.8;;
51491;SDS011;37569;50.548;8.778;2023-03-02T02:25:32;15.7;;;9.1;;
51491;SDS011;37569;50.548;8.778;2023-03-02T02:30:27;13.7;;;8.4;;
51491;SDS011;37569;50.548;8.778;2023-03-02T02:35:27;13.5;;;8.3;;
51491;SDS011;37569;50.548;8.778;2023-03-02T02:40:37;14.7;;;9.2;;
51491;SDS011;37569;50.548;8.778;2023-03-02T02:45:27;15.5;;;9.2;;
51491;SDS011;37569;50.548;8.778;2023-03-02T02:50:28;14.5;;;8.9;;
51491;SDS011;37569;50.548;8.778;2023-03-02T02:55:27;13.7;;;8.9;;
51491;SDS011;37569;50.548;8.778;2023-03-02T03:00:27;13.5;;;8.4;;
51491;SDS011;37569;50.548;8.778;2023-03-02T03:05:27;13.7;;;8.5;;
51491;SDS011;37569;50.548;8.778;2023-03-02T03:10:28;12.5;;;7.8;;
51491;SDS011;37569;50.548;8.778;2023-03-02T03:15:27;12.5;;;8.7;;
51491;SDS011;37569;50.548;8.778;2023-03-02T03:20:28;14.1;;;8.2;;
51491;SDS011;37569;50.548;8.778;2023-03-02T03:25:28;15.1;;;8.3;;
51491;SDS011;37569;50.548;8.778;2023-03-02T03:30:27;15.8;;;8.7;;
51491;SDS011;37569;50.548;8.778;2023-03-02T03:35:27;13.5;;;8.2;;
51491;SDS011;37569;50.548;8.778;2023-03-02T03:40:27;12.9;;;8;;
51491;SDS011;37569;50.548;8.778;2023-03-02T03:45:28;12.4;;;8.3;;
51491;SDS011;37569;50.548;8.778;2023-03-02T03:50:28;12.1;;;7.5;;
51491;SDS011;37569;50.548;8.778;2023-03-02T03:55:28;13.3;;;8.4;;
51491;SDS011;37569;50.548;8.778;2023-03-02T04:00:28;10;;;6.4;;
51491;SDS011;37569;50.548;8.778;2023-03-02T04:05:28;10.4;;;7.5;;
51491;SDS011;37569;50.548;8.778;2023-03-02T04:10:28;12.2;;;8.2;;
51491;SDS011;37569;50.548;8.778;2023-03-02T04:15:28;12.2;;;7.4;;
51491;SDS011;37569;50.548;8.778;2023-03-02T04:20:28;10.3;;;7.3;;
51491;SDS011;37569;50.548;8.778;2023-03-02T04:25:28;10.8;;;7.4;;
51491;SDS011;37569;50.548;8.778;2023-03-02T04:30:28;11.3;;;6.7;;
51491;SDS011;37569;50.548;8.778;2023-03-02T04:35:28;9.8;;;7;;
51491;SDS011;37569;50.548;8.778;2023-03-02T04:40:28;11.9;;;7.7;;
51491;SDS011;37569;50.548;8.778;2023-03-02T04:45:28;11.9;;;7.2;;
51491;SDS011;37569;50.548;8.778;2023-03-02T04:50:28;10.4;;;6.2;;
51491;SDS011;37569;50.548;8.778;2023-03-02T04:55:28;12.2;;;7.3;;
51491;SDS011;37569;50.548;8.778;2023-03-02T05:00:28;12.2;;;7;;
51491;SDS011;37569;50.548;8.778;2023-03-02T05:05:29;9.7;;;6.6;;
51491;SDS011;37569;50.548;8.778;2023-03-02T05:10:28;11.4;;;7.3;;
51491;SDS011;37569;50.548;8.778;2023-03-02T05:15:29;11.3;;;7.9;;
51491;SDS011;37569;50.548;8.778;2023-03-02T05:20:29;11.1;;;7.4;;
51491;SDS011;37569;50.548;8.778;2023-03-02T05:25:29;10.5;;;6.6;;
51491;SDS011;37569;50.548;8.778;2023-03-02T05:30:28;11.7;;;7;;
51491;SDS011;37569;50.548;8.778;2023-03-02T05:35:28;13.2;;;8.2;;
51491;SDS011;37569;50.548;8.778;2023-03-02T05:40:28;12;;;7;;
51491;SDS011;37569;50.548;8.778;2023-03-02T05:45:29;12.4;;;7.3;;
51491;SDS011;37569;50.548;8.778;2023-03-02T05:50:29;9.8;;;6.7;;
51491;SDS011;37569;50.548;8.778;2023-03-02T05:55:29;13;;;7.4;;
51491;SDS011;37569;50.548;8.778;2023-03-02T06:00:29;12.6;;;7.6;;
51491;SDS011;37569;50.548;8.778;2023-03-02T06:05:29;11.5;;;6.9;;
51491;SDS011;37569;50.548;8.778;2023-03-02T06:10:29;11.9;;;7.1;;
51491;SDS011;37569;50.548;8.778;2023-03-02T06:15:29;12.7;;;8.1;;
51491;SDS011;37569;50.548;8.778;2023-03-02T06:20:29;16.7;;;9.5;;
51491;SDS011;37569;50.548;8.778;2023-03-02T06:25:29;12.7;;;8.1;;
51491;SDS011;37569;50.548;8.778;2023-03-02T06:30:29;14.8;;;8.7;;
51491;SDS011;37569;50.548;8.778;2023-03-02T06:35:29;10.5;;;6.5;;
51491;SDS011;37569;50.548;8.778;2023-03-02T06:40:29;9.7;;;6.5;;
51491;SDS011;37569;50.548;8.778;2023-03-02T06:45:29;11.8;;;7.5;;
51491;SDS011;37569;50.548;8.778;2023-03-02T06:50:29;13.1;;;7.3;;
51491;SDS011;37569;50.548;8.778;2023-03-02T06:55:29;10.3;;;7.6;;
51491;SDS011;37569;50.548;8.778;2023-03-02T07:00:30;11.3;;;7.2;;
51491;SDS011;37569;50.548;8.778;2023-03-02T07:05:30;11.5;;;8.1;;
51491;SDS011;37569;50.548;8.778;2023-03-02T07:10:30;12;;;8;;
51491;SDS011;37569;50.548;8.778;2023-03-02T07:15:30;12.7;;;8.6;;
51491;SDS011;37569;50.548;8.778;2023-03-02T07:20:30;13.2;;;8.4;;
51491;SDS011;37569;50.548;8.778;2023-03-02T07:25:31;12.2;;;8.1;;
51491;SDS011;37569;50.548;8.778;2023-03-02T07:30:31;13.1;;;8.7;;
51491;SDS011;37569;50.548;8.778;2023-03-02T07:35:31;12.1;;;8.4;;
51491;SDS011;37569;50.548;8.778;2023-03-02T07:40:31;12.4;;;8.4;;
51491;SDS011;37569;50.548;8.778;2023-03-02T07:45:31;12.7;;;9;;
51491;SDS011;37569;50.548;8.778;2023-03-02T07:50:32;12.9;;;9;;
51491;SDS011;37569;50.548;8.778;2023-03-02T07:55:32;13;;;9.3;;
51491;SDS011;37569;50.548;8.778;2023-03-02T08:00:32;15.6;;;9.1;;
51491;SDS011;37569;50.548;8.778;2023-03-02T08:05:32;13.3;;;8.8;;
51491;SDS011;37569;50.548;8.778;2023-03-02T08:10:33;12.4;;;8.9;;
51491;SDS011;37569;50.548;8.778;2023-03-02T08:15:33;13.8;;;8.7;;
51491;SDS011;37569;50.548;8.778;2023-03-02T08:20:33;13.7;;;9.5;;
51491;SDS011;37569;50.548;8.778;2023-03-02T08:25:34;13.1;;;9.2;;
51491;SDS011;37569;50.548;8.778;2023-03-02T08:30:34;12.4;;;8.4;;
51491;SDS011;37569;50.548;8.778;2023-03-02T08:35:34;12.7;;;8.6;;
51491;SDS011;37569;50.548;8.778;2023-03-02T08:40:34;12.8;;;8.6;;
51491;SDS011;37569;50.548;8.778;2023-03-02T08:45:35;14.6;;;8.8;;
51491;SDS011;37569;50.548;8.778;2023-03-02T08:50:35;13.3;;;9;;
51491;SDS011;37569;50.548;8.778;2023-03-02T08:55:35;13.9;;;9.5;;
51491;SDS011;37569;50.548;8.778;2023-03-02T09:00:35;13.3;;;8.7;;
51491;SDS011;37569;50.548;8.778;2023-03-02T09:05:36;14.1;;;9.4;;
51491;SDS011;37569;50.548;8.778;2023-03-02T09:10:36;12.6;;;8.4;;
51491;SDS011;37569;50.548;8.778;2023-03-02T09:15:36;12.2;;;7.4;;
51491;SDS011;37569;50.548;8.778;2023-03-02T09:20:36;11.4;;;7.4;;
51491;SDS011;37569;50.548;8.778;2023-03-02T09:25:37;12.7;;;8.8;;
51491;SDS011;37569;50.548;8.778;2023-03-02T09:30:37;13.4;;;8.6;;
51491;SDS011;37569;50.548;8.778;2023-03-02T09:35:37;11.9;;;8.5;;
51491;SDS011;37569;50.548;8.778;2023-03-02T09:40:38;13.9;;;9;;
51491;SDS011;37569;50.548;8.778;2023-03-02T09:45:42;13.4;;;8.8;;
51491;SDS011;37569;50.548;8.778;2023-03-02T09:50:39;12.8;;;9;;
51491;SDS011;37569;50.548;8.778;2023-03-02T09:55:39;10.9;;;7.6;;
51491;SDS011;37569;50.548;8.778;2023-03-02T10:00:39;13.6;;;10.3;;
51491;SDS011;37569;50.548;8.778;2023-03-02T10:05:40;13.4;;;8.3;;
51491;SDS011;37569;50.548;8.778;2023-03-02T10:10:41;13.8;;;7.7;;
51491;SDS011;37569;50.548;8.778;2023-03-02T10:15:41;13.7;;;8.3;;
51491;SDS011;37569;50.548;8.778;2023-03-02T10:20:41;13.5;;;8.8;;
51491;SDS011;37569;50.548;8.778;2023-03-02T10:25:42;12.4;;;8.2;;
51491;SDS011;37569;50.548;8.778;2023-03-02T10:30:41;11.7;;;7.6;;
51491;SDS011;37569;50.548;8.778;2023-03-02T10:35:43;12.8;;;8.4;;
51491;SDS011;37569;50.548;8.778;2023-03-02T10:40:44;14.2;;;8.6;;
51491;SDS011;37569;50.548;8.778;2023-03-02T10:45:42;11.1;;;7.8;;
51491;SDS011;37569;50.548;8.778;2023-03-02T10:50:43;13;;;6.6;;
51491;SDS011;37569;50.548;8.778;2023-03-02T10:55:44;11.4;;;7.8;;
51491;SDS011;37569;50.548;8.778;2023-03-02T11:00:53;11.6;;;8.7;;
51491;SDS011;37569;50.548;8.778;2023-03-02T11:05:44;10.6;;;7.2;;
51491;SDS011;37569;50.548;8.778;2023-03-02T11:10:49;12.8;;;7.7;;
51491;SDS011;37569;50.548;8.778;2023-03-02T11:15:45;13;;;8;;
51491;SDS011;37569;50.548;8.778;2023-03-02T11:20:45;11.4;;;7.6;;
51491;SDS011;37569;50.548;8.778;2023-03-02T11:25:47;12.5;;;8;;
51491;SDS011;37569;50.548;8.778;2023-03-02T11:30:46;11.6;;;7.5;;
51491;SDS011;37569;50.548;8.778;2023-03-02T11:35:47;10.1;;;7.2;;
51491;SDS011;37569;50.548;8.778;2023-03-02T11:40:47;11.6;;;7.1;;
51491;SDS011;37569;50.548;8.778;2023-03-02T11:45:47;14.7;;;8.5;;
51491;SDS011;37569;50.548;8.778;2023-03-02T11:50:50;9.2;;;6.6;;
51491;SDS011;37569;50.548;8.778;2023-03-02T11:55:48;10;;;7;;
51491;SDS011;37569;50.548;8.778;2023-03-02T12:00:48;10.7;;;7.6;;
51491;SDS011;37569;50.548;8.778;2023-03-02T12:06:04;10.9;;;8.2;;
51491;SDS011;37569;50.548;8.778;2023-03-02T12:10:55;10.7;;;7.5;;
51491;SDS011;37569;50.548;8.778;2023-03-02T12:15:49;9.7;;;6.7;;
51491;SDS011;37569;50.548;8.778;2023-03-02T12:20:56;10.5;;;7.1;;
51491;SDS011;37569;50.548;8.778;2023-03-02T12:25:59;11.1;;;7.6;;
51491;SDS011;37569;50.548;8.778;2023-03-02T12:30:54;11.2;;;7;;
51491;SDS011;37569;50.548;8.778;2023-03-02T12:35:59;8.9;;;7.2;;
51491;SDS011;37569;50.548;8.778;2023-03-02T12:40:54;10.5;;;7.5;;
51491;SDS011;37569;50.548;8.778;2023-03-02T12:46:01;10.7;;;7;;
51491;SDS011;37569;50.548;8.778;2023-03-02T12:50:53;9.3;;;6.5;;
51491;SDS011;37569;50.548;8.778;2023-03-02T12:55:53;10.7;;;6.5;;
51491;SDS011;37569;50.548;8.778;2023-03-02T13:00:54;9.6;;;7.3;;
51491;SDS011;37569;50.548;8.778;2023-03-02T13:05:59;10.8;;;7.4;;
51491;SDS011;37569;50.548;8.778;2023-03-02T13:10:54;12.9;;;8.3;;
51491;SDS011;37569;50.548;8.778;2023-03-02T13:15:55;10.6;;;7.5;;
51491;SDS011;37569;50.548;8.778;2023-03-02T13:20:55;10;;;8;;
51491;SDS011;37569;50.548;8.778;2023-03-02T13:25:56;10.7;;;7.2;;
51491;SDS011;37569;50.548;8.778;2023-03-02T13:30:57;11.7;;;7.2;;
51491;SDS011;37569;50.548;8.778;2023-03-02T13:35:56;9.8;;;7.4;;
51491;SDS011;37569;50.548;8.778;2023-03-02T13:40:57;9.3;;;6.4;;
51491;SDS011;37569;50.548;8.778;2023-03-02T13:45:58;11.4;;;7.2;;
51491;SDS011;37569;50.548;8.778;2023-03-02T13:50:58;9.9;;;7.1;;
51491;SDS011;37569;50.548;8.778;2023-03-02T13:55:58;9.7;;;7.2;;
51491;SDS011;37569;50.548;8.778;2023-03-02T14:00:58;8.4;;;6;;
51491;SDS011;37569;50.548;8.778;2023-03-02T14:05:59;9.4;;;6.6;;
51491;SDS011;37569;50.548;8.778;2023-03-02T14:10:59;9.3;;;6.4;;
51491;SDS011;37569;50.548;8.778;2023-03-02T14:16:00;7.5;;;5.4;;
51491;SDS011;37569;50.548;8.778;2023-03-02T14:21:00;8.4;;;6;;
51491;SDS011;37569;50.548;8.778;2023-03-02T14:26:01;7.5;;;5.2;;
51491;SDS011;37569;50.548;8.778;2023-03-02T14:31:01;8.2;;;5.4;;
51491;SDS011;37569;50.548;8.778;2023-03-02T14:36:02;6.4;;;5.1;;
51491;SDS011;37569;50.548;8.778;2023-03-02T14:41:02;7;;;4.8;;
51491;SDS011;37569;50.548;8.778;2023-03-02T14:46:03;6.2;;;5.2;;
51491;SDS011;37569;50.548;8.778;2023-03-02T14:51:03;7.4;;;5.6;;
51491;SDS011;37569;50.548;8.778;2023-03-02T14:56:04;6.4;;;4.5;;
51491;SDS011;37569;50.548;8.778;2023-03-02T15:01:04;5.9;;;4.7;;
51491;SDS011;37569;50.548;8.778;2023-03-02T15:06:05;5.9;;;4.3;;
51491;SDS011;37569;50.548;8.778;2023-03-02T15:11:05;5.9;;;3.8;;
51491;SDS011;37569;50.548;8.778;2023-03-02T15:16:07;4.9;;;3.8;;
51491;SDS011;37569;50.548;8.778;2023-03-02T15:21:06;8.1;;;3.8;;
51491;SDS011;37569;50.548;8.778;2023-03-02T15:26:06;5.6;;;4.1;;
51491;SDS011;37569;50.548;8.778;2023-03-02T15:31:07;6;;;4.5;;
51491;SDS011;37569;50.548;8.778;2023-03-02T15:36:07;5.2;;;3.7;;
51491;SDS011;37569;50.548;8.778;2023-03-02T15:41:09;5.6;;;3.8;;
51491;SDS011;37569;50.548;8.778;2023-03-02T15:46:08;7.1;;;3.9;;
51491;SDS011;37569;50.548;8.778;2023-03-02T15:51:08;5.6;;;3.8;;
51491;SDS011;37569;50.548;8.778;2023-03-02T15:56:09;5.7;;;4.3;;
51491;SDS011;37569;50.548;8.778;2023-03-02T16:01:09;6.6;;;4;;
51491;SDS011;37569;50.548;8.778;2023-03-02T16:06:09;5.3;;;4.1;;
51491;SDS011;37569;50.548;8.778;2023-03-02T16:11:10;9.5;;;6.1;;
51491;SDS011;37569;50.548;8.778;2023-03-02T16:16:10;7.5;;;4.8;;
51491;SDS011;37569;50.548;8.778;2023-03-02T16:21:10;6.5;;;4.2;;
51491;SDS011;37569;50.548;8.778;2023-03-02T16:26:12;6.9;;;4.7;;
51491;SDS011;37569;50.548;8.778;2023-03-02T16:31:12;6.1;;;4.3;;
51491;SDS011;37569;50.548;8.778;2023-03-02T16:36:13;6.4;;;4.2;;
51491;SDS011;37569;50.548;8.778;2023-03-02T16:41:14;7.3;;;4.2;;
51491;SDS011;37569;50.548;8.778;2023-03-02T16:46:13;5.9;;;4.3;;
51491;SDS011;37569;50.548;8.778;2023-03-02T16:51:13;7.6;;;5.2;;
51491;SDS011;37569;50.548;8.778;2023-03-02T16:56:13;12.3;;;7.2;;
51491;SDS011;37569;50.548;8.778;2023-03-02T17:01:15;10.5;;;6.7;;
51491;SDS011;37569;50.548;8.778;2023-03-02T17:06:14;11;;;6.7;;
51491;SDS011;37569;50.548;8.778;2023-03-02T17:11:14;10.1;;;7;;
51491;SDS011;37569;50.548;8.778;2023-03-02T17:16:15;8.3;;;5.2;;
51491;SDS011;37569;50.548;8.778;2023-03-02T17:21:15;10.2;;;6.2;;
51491;SDS011;37569;50.548;8.778;2023-03-02T17:26:16;10;;;5;;
51491;SDS011;37569;50.548;8.778;2023-03-02T17:31:16;5.9;;;4.4;;
51491;SDS011;37569;50.548;8.778;2023-03-02T17:36:16;6.7;;;5;;
51491;SDS011;37569;50.548;8.778;2023-03-02T17:41:16;5.8;;;4.1;;
51491;SDS011;37569;50.548;8.778;2023-03-02T17:46:17;7.3;;;4.5;;
51491;SDS011;37569;50.548;8.778;2023-03-02T17:51:17;6.8;;;4.4;;
51491;SDS011;37569;50.548;8.778;2023-03-02T17:56:18;6.5;;;4.6;;
51491;SDS011;37569;50.548;8.778;2023-03-02T18:01:18;7.1;;;4.4;;
51491;SDS011;37569;50.548;8.778;2023-03-02T18:06:18;8.6;;;6.6;;
51491;SDS011;37569;50.548;8.778;2023-03-02T18:11:19;7.4;;;4.9;;
51491;SDS011;37569;50.548;8.778;2023-03-02T18:16:19;7.5;;;5.5;;
51491;SDS011;37569;50.548;8.778;2023-03-02T18:21:19;8.1;;;5.3;;
51491;SDS011;37569;50.548;8.778;2023-03-02T18:26:19;6.1;;;4.4;;
51491;SDS011;37569;50.548;8.778;2023-03-02T18:31:19;6.2;;;5.1;;
51491;SDS011;37569;50.548;8.778;2023-03-02T18:36:20;7.6;;;4.9;;
51491;SDS011;37569;50.548;8.778;2023-03-02T18:41:20;7.7;;;4.9;;
51491;SDS011;37569;50.548;8.778;2023-03-02T18:46:21;7.1;;;4.8;;
51491;SDS011;37569;50.548;8.778;2023-03-02T18:51:21;7.4;;;4.6;;
51491;SDS011;37569;50.548;8.778;2023-03-02T18:56:21;6.3;;;4.8;;
51491;SDS011;37569;50.548;8.778;2023-03-02T19:01:21;6.7;;;5;;
51491;SDS011;37569;50.548;8.778;2023-03-02T19:06:22;5.9;;;4.5;;
51491;SDS011;37569;50.548;8.778;2023-03-02T19:11:22;6.8;;;4.6;;
51491;SDS011;37569;50.548;8.778;2023-03-02T19:16:22;7.1;;;4.5;;
51491;SDS011;37569;50.548;8.778;2023-03-02T19:21:22;7.1;;;4.8;;
51491;SDS011;37569;50.548;8.778;2023-03-02T19:26:23;7;;;4.9;;
51491;SDS011;37569;50.548;8.778;2023-03-02T19:31:23;7.9;;;5.4;;
51491;SDS011;37569;50.548;8.778;2023-03-02T19:36:23;16.7;;;9.9;;
51491;SDS011;37569;50.548;8.778;2023-03-02T19:41:24;6;;;4.6;;
51491;SDS011;37569;50.548;8.778;2023-03-02T19:46:24;15.7;;;7.4;;
51491;SDS011;37569;50.548;8.778;2023-03-02T19:51:24;7.7;;;5.4;;
51491;SDS011;37569;50.548;8.778;2023-03-02T19:56:24;11.8;;;5.7;;
51491;SDS011;37569;50.548;8.778;2023-03-02T20:01:25;13.7;;;7.3;;
51491;SDS011;37569;50.548;8.778;2023-03-02T20:06:26;20.4;;;7.5;;
51491;SDS011;37569;50.548;8.778;2023-03-02T20:11:25;8.5;;;5.9;;
51491;SDS011;37569;50.548;8.778;2023-03-02T20:16:25;9;;;5.9;;
51491;SDS011;37569;50.548;8.778;2023-03-02T20:21:26;8.8;;;6.2;;
51491;SDS011;37569;50.548;8.778;2023-03-02T20:26:26;8.6;;;6.1;;
51491;SDS011;37569;50.548;8.778;2023-03-02T20:31:26;10.4;;;7.2;;
51491;SDS011;37569;50.548;8.778;2023-03-02T20:36:29;9.2;;;6.4;;
51491;SDS011;37569;50.548;8.778;2023-03-02T20:41:27;12.9;;;8.1;;
51491;SDS011;37569;50.548;8.778;2023-03-02T20:46:28;9.4;;;6.4;;
51491;SDS011;37569;50.548;8.778;2023-03-02T20:51:27;9.7;;;6.8;;
51491;SDS011;37569;50.548;8.778;2023-03-02T20:56:27;10.9;;;7;;
51491;SDS011;37569;50.548;8.778;2023-03-02T21:01:28;8.5;;;5.7;;
51491;SDS011;37569;50.548;8.778;2023-03-02T21:06:28;9;;;5.9;;
51491;SDS011;37569;50.548;8.778;2023-03-02T21:11:28;8.1;;;5.7;;
51491;SDS011;37569;50.548;8.778;2023-03-02T21:16:30;9.4;;;6.1;;
51491;SDS011;37569;50.548;8.778;2023-03-02T21:21:28;9.3;;;6.2;;
51491;SDS011;37569;50.548;8.778;2023-03-02T21:26:29;10.1;;;6.7;;
51491;SDS011;37569;50.548;8.778;2023-03-02T21:31:29;8.9;;;6.4;;
51491;SDS011;37569;50.548;8.778;2023-03-02T21:36:29;9.1;;;6.2;;
51491;SDS011;37569;50.548;8.778;2023-03-02T21:41:29;10.9;;;6.6;;
51491;SDS011;37569;50.548;8.778;2023-03-02T21:46:30;12.9;;;7.8;;
51491;SDS011;37569;50.548;8.778;2023-03-02T21:51:29;11.2;;;7.4;;
51491;SDS011;37569;50.548;8.778;2023-03-02T21:56:30;14.4;;;8.7;;
51491;SDS011;37569;50.548;8.778;2023-03-02T22:01:30;11.9;;;8.1;;
51491;SDS011;37569;50.548;8.778;2023-03-02T22:06:30;14.4;;;9.3;;
51491;SDS011;37569;50.548;8.778;2023-03-02T22:11:33;16;;;9.4;;
51491;SDS011;37569;50.548;8.778;2023-03-02T22:16:31;15.9;;;10.3;;
51491;SDS011;37569;50.548;8.778;2023-03-02T22:21:31;16.4;;;10.2;;
51491;SDS011;37569;50.548;8.778;2023-03-02T22:26:31;19.1;;;12;;
51491;SDS011;37569;50.548;8.778;2023-03-02T22:31:31;15.6;;;9.8;;
51491;SDS011;37569;50.548;8.778;2023-03-02T22:36:31;23.2;;;13.4;;
51491;SDS011;37569;50.548;8.778;2023-03-02T22:41:31;21.1;;;13.6;;
51491;SDS011;37569;50.548;8.778;2023-03-02T22:46:31;22.9;;;14.2;;
51491;SDS011;37569;50.548;8.778;2023-03-02T22:51:31;23.8;;;15.3;;
51491;SDS011;37569;50.548;8.778;2023-03-02T22:56:33;21.5;;;14;;
51491;SDS011;37569;50.548;8.778;2023-03-02T23:01:36;24.3;;;15;;
51491;SDS011;37569;50.548;8.778;2023-03-02T23:06:34;26.4;;;14.9;;
51491;SDS011;37569;50.548;8.778;2023-03-02T23:11:33;26.9;;;16.7;;
51491;SDS011;37569;50.548;8.778;2023-03-02T23:16:33;28.2;;;17.9;;
51491;SDS011;37569;50.548;8.778;2023-03-02T23:21:35;27.4;;;16.7;;
51491;SDS011;37569;50.548;8.778;2023-03-02T23:26:33;30.6;;;18;;
51491;SDS011;37569;50.548;8.778;2023-03-02T23:31:32;29.1;;;17.7;;
51491;SDS011;37569;50.548;8.778;2023-03-02T23:36:33;29.2;;;17.8;;
51491;SDS011;37569;50.548;8.778;2023-03-02T23:41:33;28.6;;;17;;
51491;SDS011;37569;50.548;8.778;2023-03-02T23:46:33;31;;;18.2;;
51491;SDS011;37569;50.548;8.778;2023-03-02T23:51:33;30.8;;;18;;
51491;SDS011;37569;50.548;8.778;2023-03-02T23:56:33;31.8;;;19.1;;
